createdAt,value
2023-04-05T00:04:58.455Z,78.86
2023-04-05T00:10:04.367Z,78.65
2023-04-05T00:15:11.333Z,78.87
2023-04-05T00:20:17.061Z,78.75
2023-04-05T00:25:22.686Z,78.83
2023-04-05T00:30:29.250Z,79.43
2023-04-05T00:35:34.847Z,79.99
2023-04-05T00:40:40.654Z,80.16
2023-04-05T00:45:47.146Z,80.47
2023-04-05T00:50:53.062Z,80.44
2023-04-05T00:56:01.386Z,80.94
2023-04-05T01:01:16.846Z,81.50
2023-04-05T01:06:37.722Z,81.79
2023-04-05T01:11:46.220Z,81.90
2023-04-05T01:16:58.085Z,82.56
2023-04-05T01:22:38.161Z,82.33
2023-04-05T01:28:11.099Z,82.00
2023-04-05T01:33:25.475Z,81.94
2023-04-05T01:38:32.076Z,82.09
2023-04-05T01:43:37.747Z,82.28
2023-04-05T01:48:43.217Z,82.54
2023-04-05T01:53:49.254Z,82.71
2023-04-05T01:58:54.926Z,83.07
2023-04-05T02:04:00.669Z,83.54
2023-04-05T02:09:06.343Z,83.89
2023-04-05T02:14:12.504Z,84.23
2023-04-05T02:19:23.163Z,84.77
2023-04-05T02:24:29.348Z,85.19
2023-04-05T02:29:35.000Z,85.44
2023-04-05T02:34:41.320Z,85.57
2023-04-05T02:39:46.942Z,85.47
2023-04-05T02:44:53.175Z,85.19
2023-04-05T02:49:59.443Z,84.73
2023-04-05T02:55:08.279Z,84.70
2023-04-05T03:00:16.748Z,84.80
2023-04-05T03:05:22.733Z,85.14
2023-04-05T03:10:35.012Z,85.77
2023-04-05T03:15:46.006Z,86.19
2023-04-05T03:20:59.673Z,86.34
2023-04-05T03:26:06.483Z,87.03
2023-04-05T03:31:14.977Z,87.63
2023-04-05T03:36:21.765Z,88.26
2023-04-05T03:41:30.872Z,88.86
2023-04-05T03:46:38.155Z,89.15
2023-04-05T03:51:45.336Z,89.71
2023-04-05T03:56:52.076Z,89.86
2023-04-05T04:01:58.118Z,89.92
2023-04-05T04:07:04.341Z,90.08
2023-04-05T04:12:11.514Z,89.94
2023-04-05T04:17:31.833Z,89.77
2023-04-05T04:22:56.261Z,90.44
2023-04-05T04:28:34.967Z,90.22
2023-04-05T04:33:55.529Z,90.18
2023-04-05T04:39:18.649Z,90.16
2023-04-05T04:44:54.602Z,89.75
2023-04-05T04:50:27.033Z,89.72
2023-04-05T04:55:36.510Z,89.87
2023-04-05T05:00:44.462Z,90.19
2023-04-05T05:05:53.710Z,89.94
2023-04-05T05:11:06.436Z,89.81
2023-04-05T05:16:11.895Z,89.63
2023-04-05T05:21:17.949Z,89.76
2023-04-05T05:26:30.222Z,89.71
2023-04-05T05:31:36.660Z,89.91
2023-04-05T05:36:43.161Z,90.06
2023-04-05T05:41:49.161Z,89.73
2023-04-05T05:46:54.964Z,89.62
2023-04-05T05:52:00.781Z,88.98
2023-04-05T05:57:06.854Z,88.76
2023-04-05T06:02:13.240Z,88.70
2023-04-05T06:07:18.995Z,88.13
2023-04-05T06:12:26.042Z,87.81
2023-04-05T06:17:34.542Z,87.93
2023-04-05T06:22:41.263Z,87.79
2023-04-05T06:27:46.998Z,87.02
2023-04-05T06:32:54.888Z,85.91
2023-04-05T06:38:00.661Z,84.80
2023-04-05T06:43:06.414Z,84.26
2023-04-05T06:48:12.647Z,83.51
2023-04-05T06:53:19.728Z,82.85
2023-04-05T06:58:26.633Z,82.31
2023-04-05T07:03:32.892Z,82.16
2023-04-05T07:08:38.796Z,81.16
2023-04-05T07:13:44.240Z,80.65
2023-04-05T07:18:49.984Z,79.61
2023-04-05T07:23:58.293Z,79.48
2023-04-05T07:29:04.955Z,79.62
2023-04-05T07:34:10.734Z,79.07
2023-04-05T07:39:16.616Z,78.30
2023-04-05T07:44:22.356Z,78.38
2023-04-05T07:49:28.504Z,76.55
2023-04-05T07:54:34.309Z,75.65
2023-04-05T07:59:40.028Z,75.32
2023-04-05T08:04:45.995Z,73.97
2023-04-05T08:09:51.575Z,73.80
2023-04-05T08:14:57.399Z,73.09
2023-04-05T08:20:04.192Z,72.27
2023-04-05T08:25:11.006Z,71.49
2023-04-05T08:30:16.966Z,68.45
2023-04-05T08:35:22.844Z,66.34
2023-04-05T08:40:44.791Z,66.05
2023-04-05T08:45:51.766Z,65.76
2023-04-05T08:50:57.395Z,64.73
2023-04-05T08:56:04.325Z,64.16
2023-04-05T09:01:11.901Z,63.16
2023-04-05T09:06:18.539Z,63.34
2023-04-05T09:11:24.525Z,62.84
2023-04-05T09:16:31.408Z,61.68
2023-04-05T09:22:01.087Z,60.54
2023-04-05T09:27:09.877Z,60.15
2023-04-05T09:32:19.509Z,58.66
2023-04-05T09:37:25.230Z,58.78
2023-04-05T09:42:43.805Z,58.05
2023-04-05T09:47:57.839Z,56.73
2023-04-05T09:53:16.075Z,54.83
2023-04-05T09:58:22.857Z,54.44
2023-04-05T10:03:30.101Z,54.66
2023-04-05T10:08:36.189Z,51.99
2023-04-05T10:13:42.257Z,48.93
2023-04-05T10:18:52.005Z,47.23
2023-04-05T10:24:10.688Z,46.79
2023-04-05T10:29:26.046Z,45.86
2023-04-05T10:34:40.554Z,47.03
2023-04-05T10:39:47.453Z,47.29
2023-04-05T10:45:04.593Z,47.15
2023-04-05T10:50:17.742Z,48.02
2023-04-05T10:55:23.694Z,48.63
2023-04-05T11:00:29.890Z,48.25
2023-04-05T11:05:37.508Z,48.09
2023-04-05T11:10:52.493Z,48.30
2023-04-05T11:16:11.413Z,47.32
2023-04-05T11:21:25.073Z,48.22
2023-04-05T11:26:52.982Z,47.74
2023-04-05T11:32:06.846Z,47.65
2023-04-05T11:37:15.748Z,47.77
2023-04-05T11:42:21.987Z,47.88
2023-04-05T11:47:28.793Z,48.07
2023-04-05T11:52:34.614Z,48.01
2023-04-05T11:57:40.164Z,47.84
2023-04-05T12:02:46.197Z,47.46
2023-04-05T12:07:55.709Z,47.26
2023-04-05T12:13:01.591Z,46.50
2023-04-05T12:18:15.137Z,47.02
2023-04-05T12:23:21.569Z,46.78
2023-04-05T12:28:49.297Z,45.62
2023-04-05T12:34:00.800Z,44.02
2023-04-05T12:39:10.166Z,44.92
2023-04-05T12:44:28.339Z,43.55
2023-04-05T12:49:37.615Z,44.09
2023-04-05T12:54:53.197Z,44.40
2023-04-05T12:59:59.047Z,43.63
2023-04-05T13:05:04.818Z,43.55
2023-04-05T13:10:11.933Z,42.99
2023-04-05T13:15:18.522Z,42.94
2023-04-05T13:20:24.186Z,42.69
2023-04-05T13:25:30.128Z,43.34
2023-04-05T13:30:35.715Z,43.60
2023-04-05T13:35:41.828Z,43.80
2023-04-05T13:40:47.904Z,44.52
2023-04-05T13:45:53.420Z,44.38
2023-04-05T13:50:58.869Z,45.06
2023-04-05T13:56:04.608Z,44.79
2023-04-05T14:01:10.955Z,44.76
2023-04-05T14:06:17.183Z,45.10
2023-04-05T14:11:22.838Z,45.15
2023-04-05T14:16:28.617Z,45.03
2023-04-05T14:21:34.491Z,45.09
2023-04-05T14:26:41.042Z,44.79
2023-04-05T14:31:46.874Z,45.20
2023-04-05T14:36:52.511Z,45.64
2023-04-05T14:41:58.115Z,46.14
2023-04-05T14:47:03.534Z,46.92
2023-04-05T14:52:09.019Z,46.53
2023-04-05T14:57:14.659Z,45.59
2023-04-05T15:02:20.301Z,45.94
2023-04-05T15:07:26.612Z,46.21
2023-04-05T15:12:33.328Z,45.82
2023-04-05T15:17:39.057Z,45.55
2023-04-05T15:22:44.720Z,45.88
2023-04-05T15:27:51.257Z,45.55
2023-04-05T15:32:57.260Z,46.11
2023-04-05T15:38:03.505Z,46.92
2023-04-05T15:43:09.545Z,47.19
2023-04-05T15:48:15.467Z,47.60
2023-04-05T15:53:21.154Z,48.04
2023-04-05T15:58:27.268Z,48.16
2023-04-05T16:03:34.183Z,48.78
2023-04-05T16:08:39.917Z,49.19
2023-04-05T16:13:45.674Z,49.31
2023-04-05T16:18:51.414Z,49.38
2023-04-05T16:23:57.144Z,49.73
2023-04-05T16:29:02.859Z,49.64
2023-04-05T16:34:09.190Z,49.74
2023-04-05T16:39:14.701Z,49.62
2023-04-05T16:44:20.475Z,49.78
2023-04-05T16:49:26.242Z,49.92
2023-04-05T16:54:32.269Z,50.01
2023-04-05T16:59:38.017Z,49.94
2023-04-05T17:04:43.537Z,50.15
2023-04-05T17:09:49.788Z,50.60
2023-04-05T17:14:55.964Z,50.87
2023-04-05T17:20:01.663Z,50.93
2023-04-05T17:25:08.533Z,51.19
2023-04-05T17:30:15.767Z,51.37
2023-04-05T17:35:21.461Z,51.39
2023-04-05T17:40:27.078Z,51.53
2023-04-05T17:45:32.609Z,51.81
2023-04-05T17:50:38.554Z,51.87
2023-04-05T17:55:44.269Z,52.31
2023-04-05T18:00:54.401Z,52.66
2023-04-05T18:06:00.015Z,52.68
2023-04-05T18:11:05.954Z,52.88
2023-04-05T18:16:12.436Z,53.19
2023-04-05T18:21:18.354Z,53.49
2023-04-05T18:26:24.272Z,53.69
2023-04-05T18:31:31.039Z,53.98
2023-04-05T18:36:39.700Z,54.31
2023-04-05T18:41:45.269Z,54.51
2023-04-05T18:46:50.896Z,54.74
2023-04-05T18:51:56.981Z,55.01
2023-04-05T18:57:02.477Z,55.24
2023-04-05T19:02:08.438Z,55.33
2023-04-05T19:07:14.494Z,55.52
2023-04-05T19:12:19.961Z,56.08
2023-04-05T19:17:25.687Z,55.42
2023-04-05T19:22:31.591Z,55.23
2023-04-05T19:27:37.787Z,55.20
2023-04-05T19:32:43.434Z,55.31
2023-04-05T19:37:49.375Z,55.16
2023-04-05T19:42:56.879Z,54.90
2023-04-05T19:48:07.816Z,54.98
2023-04-05T19:53:37.681Z,55.33
2023-04-05T19:58:43.973Z,55.09
2023-04-05T20:03:50.177Z,54.85
2023-04-05T20:09:01.722Z,55.00
2023-04-05T20:14:10.247Z,55.46
2023-04-05T20:19:16.460Z,55.29
2023-04-05T20:24:23.803Z,55.98
2023-04-05T20:29:33.460Z,55.35
2023-04-05T20:34:39.829Z,54.67
2023-04-05T20:39:45.711Z,54.30
2023-04-05T20:44:51.297Z,54.37
2023-04-05T20:49:56.957Z,54.81
2023-04-05T20:55:02.728Z,54.59
2023-04-05T21:00:11.853Z,54.89
2023-04-05T21:05:17.416Z,55.79
2023-04-05T21:10:23.101Z,55.34
2023-04-05T21:15:31.395Z,55.16
2023-04-05T21:20:37.350Z,55.31
2023-04-05T21:25:43.332Z,55.47
2023-04-05T21:30:49.169Z,55.77
2023-04-05T21:35:54.753Z,55.92
2023-04-05T21:41:00.633Z,57.20
2023-04-05T21:46:06.980Z,57.37
2023-04-05T21:51:12.961Z,58.43
2023-04-05T21:56:19.195Z,59.93
2023-04-05T22:01:25.009Z,61.13
2023-04-05T22:06:31.084Z,61.96
2023-04-05T22:11:36.870Z,62.37
2023-04-05T22:16:42.736Z,61.45
2023-04-05T22:21:48.305Z,59.07
2023-04-05T22:26:56.461Z,58.35
2023-04-05T22:32:02.337Z,57.61
2023-04-05T22:37:08.007Z,57.67
2023-04-05T22:42:13.556Z,57.72
2023-04-05T22:47:19.136Z,57.86
2023-04-05T22:52:24.941Z,57.94
2023-04-05T22:57:31.211Z,57.72
2023-04-05T23:02:36.880Z,57.70
2023-04-05T23:07:42.844Z,57.94
2023-04-05T23:12:48.816Z,57.44
2023-04-05T23:17:54.451Z,57.28
2023-04-05T23:23:00.237Z,57.50
2023-04-05T23:28:06.485Z,57.93
2023-04-05T23:33:12.785Z,58.40
2023-04-05T23:38:19.161Z,58.88
2023-04-05T23:43:25.384Z,59.41
2023-04-05T23:57:02.046Z,59.41
